Skip Navigation Links
NOAA logo - Click to go to the NOAA homepage
NOAA's National Weather Service
Alaska Aviation Weather Unit
  NWS logo - Click to go to the NWS homepage
Left Navbar Graphic     22 AKDT = 06 GMT

   
NOAA is celebrating 200 years of science, service, and stewardship. Visit the NOAA 200th celebration Web site to learn more.
USA.gov is the U.S. Government's official Web portal to all Federal, state and local government Web resources and services.
Facebook
NWS on Facebook

Important Change Regarding the AAWU Web Presence

 

Over the last several months, the AAWU has been working to navigate its webpages to a nationally supported server. Security, as well as other needs, have necessitated the change.  We have been given an extension for the site changeover while we diligently work at addressing feedback received. As of July 14, 2017, aawu.arh.noaa.gov will be discontinued. The new AAWU web address is weather.gov/aawu. It is now live and will run in-parallel with the old site until it is discontinued on July 14, 2017. Please continue to send any feedback or questions regarding the new webpages to nws.ar.aawu.webauthors@noaa.gov.  Thank you for your patience during this time of transition.
AAWU Home :: Display TAF Add Bookmark
TAF CYZW 251738Z 2518/2601 VRB03KT P6SM FEW140 FEW220
    FM260000 VRB03KT P6SM SCT070 BKN140
    RMK NXT FCST WILL BE ISSUED AT 261445Z=

METAR CYZW 260000Z 21004KT 160V240 30SM FEW055 SCT130 BKN210 21/07 A2987 RMK CU1AC2CI4 SLP126 DENSITY ALT 3600FT= METAR CYZW 260100Z 18004KT 30SM FEW055 SCT130 OVC190 22/09 A2985 RMK CU1AC2CI5 CLIMAT 23.4/8.4/0.0/LAST STFD OBS/NXT 261300Z SLP118 DENSITY ALT 3800FT=
 Alaska TAF Map

NOAA's National Weather Service
Alaska Aviation Weather Unit
6930 Sand Lake Road
Anchorage, AK 99502-1845
Disclaimer
Credits
Glossary
Privacy Policy
About Us
Career Opportunities
Contact AAWU Internet Services Site last modified: April, 17th 2012